Time;durP1;ratioP1;P1;durP2;ratioP2;P2;SDS_P1;SDS_P2;PMS_P1;PMS_P2;Temp;Humidity;BMP_temperature;BMP_pressure;BME280_temperature;BME280_humidity;BME280_pressure;Samples;Min_cycle;Max_cycle;Signal;HPM_P1;HPM_P2
2022/08/08 00:02:27;;;;;;;19.52;14.18;;;;;;;21.30;96.75;99849.47;5110365;28;20491;-45
2022/08/08 00:05:02;;;;;;;18.25;13.43;;;;;;;21.45;96.07;99872.13;5107089;28;20039;-47
2022/08/08 00:07:43;;;;;;;19.88;13.27;;;;;;;21.43;95.91;99871.38;5107141;28;20039;-45
2022/08/08 00:10:16;;;;;;;18.30;13.02;;;;;;;21.41;95.19;99878.56;5108271;28;20043;-45
2022/08/08 00:13:01;;;;;;;18.83;12.80;;;;;;;21.41;94.84;99873.28;5106819;28;20058;-44
2022/08/08 00:15:31;;;;;;;16.10;12.95;;;;;;;21.40;94.66;99879.56;5108242;28;20547;-48
2022/08/08 00:18:10;;;;;;;16.85;13.27;;;;;;;21.40;94.59;99872.47;5107118;28;20507;-45
2022/08/08 00:20:49;;;;;;;16.10;13.10;;;;;;;21.40;94.50;99871.63;5114320;28;20473;-51
2022/08/08 00:23:25;;;;;;;14.57;11.90;;;;;;;21.38;94.36;99870.88;5113365;28;20392;-45
2022/08/08 00:25:54;;;;;;;17.95;13.07;;;;;;;21.40;94.10;99875.09;5114491;28;20039;-45
2022/08/08 00:28:25;;;;;;;15.82;13.48;;;;;;;21.39;94.17;99870.78;5096189;28;20431;-47
2022/08/08 00:30:54;;;;;;;16.33;13.57;;;;;;;21.37;93.91;99877.13;5096340;28;20039;-45
2022/08/08 00:33:23;;;;;;;14.50;12.45;;;;;;;21.25;93.91;99855.09;5113070;28;20062;-47
2022/08/08 00:35:52;;;;;;;19.08;13.80;;;;;;;21.31;94.06;99861.72;5112906;28;20135;-45
2022/08/08 00:38:43;;;;;;;16.77;13.35;;;;;;;21.27;94.07;99865.56;5096252;28;20062;-46
2022/08/08 00:41:30;;;;;;;17.85;13.63;;;;;;;21.24;93.87;99863.16;5114142;28;20036;-45
2022/08/08 00:44:04;;;;;;;16.75;13.60;;;;;;;21.21;93.71;99860.72;5114211;27;20035;-45
2022/08/08 00:46:49;;;;;;;17.98;13.73;;;;;;;21.17;93.85;99868.06;5112889;28;20134;-44
2022/08/08 00:49:31;;;;;;;19.23;14.38;;;;;;;21.13;93.90;99867.41;5095962;28;20047;-50
2022/08/08 00:52:00;;;;;;;18.88;14.25;;;;;;;21.12;93.42;99870.16;5112759;28;20059;-45
2022/08/08 00:55:03;;;;;;;17.05;13.13;;;;;;;21.14;93.25;99868.28;5112655;28;20062;-44
2022/08/08 00:57:32;;;;;;;15.43;11.95;;;;;;;21.14;93.08;99877.03;5095775;28;20071;-43
2022/08/08 01:00:16;;;;;;;16.05;12.27;;;;;;;21.16;92.79;99882.22;5112828;28;20427;-43
2022/08/08 01:03:31;;;;;;;17.90;13.00;;;;;;;21.20;92.47;99878.38;5097024;28;20084;-46
2022/08/08 01:06:11;;;;;;;;;;;;;;;21.20;92.32;99881.03;5092894;28;20515;-44
2022/08/08 01:08:41;;;;;;;19.95;12.60;;;;;;;21.17;92.14;99891.84;5092073;28;19922;-48
2022/08/08 01:11:34;;;;;;;17.65;12.23;;;;;;;21.15;92.28;99880.53;5092202;28;20044;-44
2022/08/08 01:14:16;;;;;;;16.63;12.38;;;;;;;21.09;91.95;99883.63;5092041;28;20044;-47
2022/08/08 01:16:45;;;;;;;15.88;11.40;;;;;;;21.08;91.88;99881.94;5091901;28;20047;-46
2022/08/08 01:19:24;;;;;;;16.10;10.35;;;;;;;21.08;91.64;99876.66;5092043;28;20044;-48
2022/08/08 01:22:23;;;;;;;10.45;8.00;;;;;;;21.04;91.34;99883.13;5075233;28;20507;-46
2022/08/08 01:25:32;;;;;;;10.65;7.45;;;;;;;20.98;91.04;99876.50;5092192;28;20572;-46
2022/08/08 01:28:04;;;;;;;12.02;7.13;;;;;;;20.95;90.73;99881.16;5091901;28;20066;-47
2022/08/08 01:30:32;;;;;;;11.13;6.85;;;;;;;20.92;90.42;99876.94;5091195;28;20044;-46
2022/08/08 01:33:19;;;;;;;8.80;5.90;;;;;;;20.89;90.22;99877.16;5074811;28;20399;-46
2022/08/08 01:36:17;;;;;;;9.60;5.78;;;;;;;20.83;89.88;99880.25;5091668;28;20039;-45
2022/08/08 01:39:15;;;;;;;5.80;4.40;;;;;;;20.77;89.71;99883.34;5091444;28;20048;-45
2022/08/08 01:41:53;;;;;;;5.70;3.90;;;;;;;20.73;89.56;99882.72;5074732;28;20122;-45
2022/08/08 01:44:20;;;;;;;;;;;;;;;20.73;89.62;99884.50;5075175;28;20063;-43
2022/08/08 01:46:49;;;;;;;6.07;3.60;;;;;;;20.67;89.49;99890.28;5091516;28;19963;-44
2022/08/08 01:50:13;;;;;;;3.45;3.10;;;;;;;20.66;89.23;99883.28;5091394;28;20097;-44
2022/08/08 01:52:57;;;;;;;4.43;2.90;;;;;;;20.63;89.14;99888.78;5013371;28;20064;-43
2022/08/08 01:55:47;;;;;;;3.90;3.30;;;;;;;20.62;89.06;99887.13;5084342;28;20072;-45
2022/08/08 01:58:18;;;;;;;6.75;3.17;;;;;;;20.59;88.73;99888.16;5098736;28;20043;-45
2022/08/08 02:01:11;;;;;;;5.85;2.70;;;;;;;20.59;88.83;99887.31;5094665;28;20576;-45
2022/08/08 02:03:53;;;;;;;4.20;2.70;;;;;;;20.57;88.38;99878.66;5111514;28;20047;-45
2022/08/08 02:06:42;;;;;;;3.15;2.60;;;;;;;20.56;88.56;99882.28;5090816;28;20123;-43
2022/08/08 02:09:35;;;;;;;3.88;2.85;;;;;;;20.54;88.40;99890.31;5074939;28;20073;-43
2022/08/08 02:12:21;;;;;;;4.47;3.38;;;;;;;20.50;88.38;99893.28;5074434;28;20055;-44
2022/08/08 02:15:14;;;;;;;5.88;3.75;;;;;;;20.42;88.24;99887.69;5076854;28;20075;-45
2022/08/08 02:17:59;;;;;;;6.45;4.30;;;;;;;20.42;87.88;99892.97;5090796;28;20169;-49
2022/08/08 02:22:30;;;;;;;4.25;3.60;;;;;;;20.41;87.56;99899.22;5090966;28;20134;-45
2022/08/08 02:23:48;;;;;;;8.32;4.45;;;;;;;20.40;87.28;99902.81;5091887;28;20578;-47
2022/08/08 02:26:20;;;;;;;4.65;3.40;;;;;;;20.18;87.01;99877.06;5073716;28;20028;-47
2022/08/08 02:29:05;;;;;;;5.22;3.20;;;;;;;20.36;86.88;99910.09;5091911;28;20036;-44
2022/08/08 02:32:23;;;;;;;6.00;3.08;;;;;;;20.34;87.01;99909.38;5090475;28;20514;-45
2022/08/08 02:35:01;;;;;;;5.18;2.65;;;;;;;20.34;86.64;99908.53;5041157;28;20052;-45
2022/08/08 02:37:38;;;;;;;4.80;2.90;;;;;;;20.02;86.28;99866.72;5090329;28;20042;-47
2022/08/08 02:40:41;;;;;;;7.35;3.10;;;;;;;20.26;86.22;99914.31;5073474;28;20465;-45
2022/08/08 02:43:35;;;;;;;4.55;2.78;;;;;;;20.26;86.29;99911.66;5089031;28;20119;-46
2022/08/08 02:46:46;;;;;;;4.28;2.75;;;;;;;20.24;86.04;99910.94;5055630;28;20636;-44
2022/08/08 02:49:14;;;;;;;5.22;3.10;;;;;;;20.21;85.68;99916.44;5067675;28;20048;-49
2022/08/08 02:52:02;;;;;;;4.95;3.30;;;;;;;20.21;85.78;99917.28;5089843;28;20538;-46
2022/08/08 02:54:37;;;;;;;6.40;3.00;;;;;;;20.23;85.53;99936.50;5090082;28;20117;-43
2022/08/08 02:57:15;;;;;;;4.35;2.65;;;;;;;20.19;84.95;99932.41;5091201;28;20097;-45
2022/08/08 03:00:16;;;;;;;8.02;2.85;;;;;;;20.20;85.06;99931.41;5109952;28;20772;-45
2022/08/08 03:03:08;;;;;;;4.90;2.78;;;;;;;20.19;84.87;99935.03;5089213;28;20513;-44
2022/08/08 03:05:51;;;;;;;5.30;2.85;;;;;;;20.19;84.47;99934.19;5102152;28;20043;-42
2022/08/08 03:08:26;;;;;;;5.05;2.95;;;;;;;20.19;84.33;99939.47;5110974;28;20043;-45
2022/08/08 03:11:07;;;;;;;4.78;2.58;;;;;;;20.14;83.93;99947.72;5109669;28;20466;-43
2022/08/08 03:13:45;;;;;;;3.00;2.65;;;;;;;20.11;83.88;99950.56;5095820;28;20044;-47
2022/08/08 03:16:37;;;;;;;5.05;2.47;;;;;;;20.05;83.79;99943.06;5089692;28;20713;-47
2022/08/08 03:19:24;;;;;;;5.78;2.92;;;;;;;20.02;83.68;99953.00;5074318;28;20043;-46
2022/08/08 03:21:50;;;;;;;4.68;2.40;;;;;;;19.96;83.54;99964.81;5090958;28;20044;-43
2022/08/08 03:24:17;;;;;;;3.95;2.72;;;;;;;19.92;83.45;99963.34;5089645;28;20040;-43
2022/08/08 03:26:48;;;;;;;5.40;3.20;;;;;;;19.89;83.28;99966.16;5089561;28;20032;-45
2022/08/08 03:29:17;;;;;;;3.35;2.47;;;;;;;19.86;83.00;99963.75;5088604;28;20050;-43
2022/08/08 03:34:28;;;;;;;9.85;2.72;;;;;;;19.84;82.51;99963.00;5075342;28;20051;-43
2022/08/08 03:36:54;;;;;;;8.18;2.70;;;;;;;19.66;82.42;99948.44;5089144;28;20032;-45
2022/08/08 03:39:22;;;;;;;9.10;3.80;;;;;;;19.79;82.48;99959.81;5072457;28;20044;-43
2022/08/08 03:41:48;;;;;;;2.55;2.33;;;;;;;19.64;81.88;99937.97;5089240;28;20032;-44
2022/08/08 03:44:14;;;;;;;4.13;2.60;;;;;;;19.81;81.99;99965.84;5072137;28;20039;-46
2022/08/08 03:46:49;;;;;;;3.95;2.30;;;;;;;19.80;81.98;99966.78;5089185;28;20040;-43
2022/08/08 03:49:24;;;;;;;5.22;2.75;;;;;;;19.80;82.13;99967.66;5072879;28;20539;-44
2022/08/08 03:51:53;;;;;;;4.85;2.70;;;;;;;19.79;81.77;99965.94;5090149;28;20052;-46
2022/08/08 03:54:24;;;;;;;5.50;3.10;;;;;;;19.77;81.45;99973.16;5072490;28;20052;-43
2022/08/08 03:56:50;;;;;;;8.05;3.10;;;;;;;19.77;81.19;99991.63;5071835;28;20055;-44
2022/08/08 03:59:16;;;;;;;4.10;2.90;;;;;;;19.84;81.34;99984.09;5105394;28;20043;-43
2022/08/08 04:01:42;;;;;;;6.03;3.53;;;;;;;19.86;81.32;99979.59;5092456;28;20051;-44
2022/08/08 04:04:10;;;;;;;9.30;3.47;;;;;;;19.86;81.19;99976.94;5109251;28;20051;-43
2022/08/08 04:06:54;;;;;;;3.17;2.60;;;;;;;19.85;80.94;99991.09;5109193;28;20047;-42
2022/08/08 04:09:20;;;;;;;4.20;2.55;;;;;;;19.86;80.86;99995.41;5109317;28;20050;-43
2022/08/08 04:11:46;;;;;;;3.28;2.70;;;;;;;19.89;80.85;99988.13;5109413;28;20048;-49
2022/08/08 04:14:13;;;;;;;4.82;2.95;;;;;;;19.91;80.58;99987.19;5092410;28;20124;-45
2022/08/08 04:16:41;;;;;;;5.73;2.70;;;;;;;19.92;80.02;99986.25;5109108;28;20050;-45
2022/08/08 04:19:11;;;;;;;4.18;3.30;;;;;;;19.94;79.83;99987.00;5091782;28;20043;-44
2022/08/08 04:21:38;;;;;;;3.97;2.45;;;;;;;20.07;79.62;99995.75;5109190;28;20043;-43
2022/08/08 04:24:05;;;;;;;9.43;3.70;;;;;;;20.13;78.91;100000.63;5092223;28;20043;-43
2022/08/08 04:26:31;;;;;;;3.30;2.58;;;;;;;20.17;78.53;99995.00;5092369;28;20036;-45
2022/08/08 04:28:59;;;;;;;4.80;3.67;;;;;;;20.22;78.30;100000.81;5092176;28;20051;-47
2022/08/08 04:31:25;;;;;;;5.95;3.72;;;;;;;20.27;77.59;99996.06;5092421;28;20051;-48
2022/08/08 04:33:51;;;;;;;4.15;3.75;;;;;;;20.32;77.02;99992.28;5109203;28;20511;-46
2022/08/08 04:36:17;;;;;;;5.80;4.53;;;;;;;20.40;76.69;99996.09;5109061;28;20123;-46
2022/08/08 04:38:42;;;;;;;5.05;4.57;;;;;;;20.50;76.13;99997.16;5108844;28;20054;-44
2022/08/08 04:41:08;;;;;;;5.28;4.30;;;;;;;20.61;75.62;99999.03;5108987;28;20050;-43
2022/08/08 04:43:34;;;;;;;5.40;3.80;;;;;;;20.67;75.12;99995.97;5092289;28;20031;-44
2022/08/08 04:46:00;;;;;;;5.88;4.45;;;;;;;20.77;74.40;100004.06;5092128;28;20061;-44
2022/08/08 04:48:27;;;;;;;8.15;4.65;;;;;;;20.87;73.86;100005.09;5092170;28;20143;-46
2022/08/08 04:50:53;;;;;;;6.43;4.30;;;;;;;21.00;73.39;100004.09;5091474;28;20396;-42
2022/08/08 04:53:27;;;;;;;7.68;4.30;;;;;;;21.08;72.89;100004.41;5108770;28;20031;-46
2022/08/08 04:55:54;;;;;;;10.90;4.50;;;;;;;21.16;72.25;100010.94;5108989;28;20085;-44
2022/08/08 04:58:20;;;;;;;5.07;3.17;;;;;;;21.27;71.85;100008.38;5091968;28;20059;-45
2022/08/08 05:00:47;;;;;;;6.28;3.58;;;;;;;21.40;71.34;100010.03;5091728;28;20047;-49
2022/08/08 05:03:14;;;;;;;7.82;4.10;;;;;;;21.54;71.05;100017.78;5091834;28;20047;-47
2022/08/08 05:05:40;;;;;;;9.05;3.40;;;;;;;21.64;70.56;100006.50;5092281;28;20035;-48
2022/08/08 05:08:12;;;;;;;3.80;3.40;;;;;;;21.79;69.96;100015.94;5111281;28;20122;-46
2022/08/08 05:10:39;;;;;;;7.78;4.88;;;;;;;21.80;69.44;99997.28;5096011;28;20456;-45
2022/08/08 05:13:05;;;;;;;4.25;3.85;;;;;;;22.04;68.88;100020.22;5110633;28;20100;-44
2022/08/08 05:15:34;;;;;;;;;;;;;;;22.14;68.46;100013.31;5075506;28;20051;-44
2022/08/08 05:18:00;;;;;;;5.60;3.65;;;;;;;22.21;68.06;100017.16;5075003;28;19920;-45
2022/08/08 05:20:25;;;;;;;5.45;3.25;;;;;;;22.03;67.84;99973.56;5091878;28;20040;-44
2022/08/08 05:22:53;;;;;;;4.70;4.25;;;;;;;22.35;67.23;100014.25;5091795;28;20043;-46
2022/08/08 05:25:20;;;;;;;6.47;3.75;;;;;;;22.45;67.08;100017.06;5091873;28;20093;-45
2022/08/08 05:27:47;;;;;;;4.03;3.60;;;;;;;22.37;66.81;99988.50;5091772;28;20032;-46
2022/08/08 05:30:14;;;;;;;9.35;4.03;;;;;;;22.64;66.39;100027.91;5091800;28;20048;-46
2022/08/08 05:32:46;;;;;;;4.57;3.67;;;;;;;22.75;65.88;100017.31;5091714;28;20078;-46
2022/08/08 05:35:16;;;;;;;7.35;4.40;;;;;;;22.85;65.28;100010.31;5091697;28;20051;-49
2022/08/08 05:37:54;;;;;;;5.25;3.90;;;;;;;22.89;64.83;100018.88;5092744;28;20088;-46
2022/08/08 05:40:44;;;;;;;7.22;4.55;;;;;;;22.84;64.98;100018.41;5090923;28;20618;-44
2022/08/08 05:43:27;;;;;;;5.65;4.82;;;;;;;22.82;64.81;100015.03;5091418;28;20036;-47
2022/08/08 05:46:06;;;;;;;6.57;5.10;;;;;;;22.85;64.87;100022.75;5091507;28;20043;-48
2022/08/08 05:48:34;;;;;;;9.13;6.22;;;;;;;22.86;64.69;100014.66;5074914;28;20040;-43
2022/08/08 05:51:01;;;;;;;6.65;5.53;;;;;;;22.75;64.52;99999.63;5074171;28;20055;-47
2022/08/08 05:53:27;;;;;;;8.68;5.30;;;;;;;22.82;64.51;100029.13;5079997;28;20052;-42
2022/08/08 05:55:57;;;;;;;8.60;6.28;;;;;;;22.80;64.64;100023.09;5111590;28;20101;-44
2022/08/08 05:58:31;;;;;;;9.05;6.00;;;;;;;22.80;64.62;100021.31;5111461;28;20424;-45
2022/08/08 06:01:01;;;;;;;8.13;5.93;;;;;;;22.83;64.38;100035.25;5094659;28;20490;-44
2022/08/08 06:03:29;;;;;;;8.95;5.22;;;;;;;22.88;64.00;100031.28;5111523;28;20051;-45
2022/08/08 06:06:00;;;;;;;7.57;5.40;;;;;;;22.93;63.90;100039.72;5111237;28;20126;-45
2022/08/08 06:08:28;;;;;;;9.38;6.15;;;;;;;23.10;63.55;100036.56;5111252;28;20043;-49
2022/08/08 06:10:58;;;;;;;7.75;6.03;;;;;;;23.29;62.82;100040.41;5094306;28;20035;-49
2022/08/08 06:13:27;;;;;;;5.77;5.17;;;;;;;23.38;62.54;100039.63;5111271;28;20130;-50
2022/08/08 06:15:55;;;;;;;6.65;5.38;;;;;;;23.17;62.69;100015.69;5111256;28;20356;-44
2022/08/08 06:18:28;;;;;;;6.45;5.65;;;;;;;23.00;62.99;100018.84;5110763;28;20047;-45
2022/08/08 06:20:58;;;;;;;7.20;5.55;;;;;;;23.03;63.42;100045.97;5111318;28;20073;-47
2022/08/08 06:23:26;;;;;;;7.35;6.65;;;;;;;22.92;63.63;100045.16;5094424;28;20044;-46
2022/08/08 06:26:05;;;;;;;16.55;6.55;;;;;;;22.83;64.05;100046.72;5111127;28;20039;-44
2022/08/08 06:28:33;;;;;;;7.15;5.57;;;;;;;22.81;64.23;100048.66;5111059;28;20039;-46
2022/08/08 06:31:03;;;;;;;10.65;5.85;;;;;;;22.73;64.18;100059.00;5110585;28;20031;-42
2022/08/08 06:34:16;;;;;;;8.45;5.57;;;;;;;22.60;64.42;100056.47;5094237;28;20051;-47
2022/08/08 06:36:44;;;;;;;8.60;5.15;;;;;;;22.51;64.64;100053.66;5107026;28;20534;-43
2022/08/08 06:39:13;;;;;;;9.02;5.57;;;;;;;22.46;64.94;100067.28;5093941;28;20039;-45
2022/08/08 06:41:50;;;;;;;8.98;6.30;;;;;;;22.40;65.33;100071.22;5110905;28;20093;-49
2022/08/08 06:44:22;;;;;;;9.00;5.90;;;;;;;22.37;65.28;100073.28;5093898;28;20138;-45
2022/08/08 06:46:52;;;;;;;7.88;5.97;;;;;;;22.34;65.42;100071.72;5109015;28;20043;-46
2022/08/08 06:49:18;;;;;;;10.63;5.85;;;;;;;22.40;65.33;100076.53;5091857;28;20044;-45
2022/08/08 06:51:46;;;;;;;8.85;5.45;;;;;;;22.42;64.94;100055.22;5109598;28;20062;-47
2022/08/08 06:54:14;;;;;;;8.57;5.85;;;;;;;22.68;64.57;100077.06;5110427;28;20511;-44
2022/08/08 06:56:42;;;;;;;9.73;5.72;;;;;;;22.91;63.90;100077.94;5089680;28;20123;-42
2022/08/08 06:59:09;;;;;;;10.20;5.55;;;;;;;23.06;63.07;100053.69;5071286;28;20059;-45
2022/08/08 07:01:47;;;;;;;6.88;5.82;;;;;;;23.20;62.10;100026.03;5092792;28;20047;-44
2022/08/08 07:04:24;;;;;;;9.88;5.95;;;;;;;23.57;61.70;100072.53;5084814;28;20046;-45
2022/08/08 07:06:59;;;;;;;7.85;5.47;;;;;;;23.53;61.46;100068.47;5093506;28;20036;-47
2022/08/08 07:09:45;;;;;;;6.72;5.30;;;;;;;23.49;61.38;100080.28;5107973;28;20468;-46
2022/08/08 07:12:30;;;;;;;8.95;5.30;;;;;;;23.49;61.30;100075.00;5092666;28;20043;-49
2022/08/08 07:15:03;;;;;;;8.40;5.32;;;;;;;23.56;60.85;100072.66;5109482;28;20043;-48
2022/08/08 07:17:34;;;;;;;5.55;4.75;;;;;;;23.64;60.75;100079.03;5109538;28;20039;-48
2022/08/08 07:20:06;;;;;;;8.18;5.15;;;;;;;23.73;60.50;100088.03;5092445;28;20054;-45
2022/08/08 07:22:56;;;;;;;6.75;4.80;;;;;;;23.69;60.62;100083.13;5092936;28;20259;-48
2022/08/08 07:25:24;;;;;;;7.60;5.55;;;;;;;23.40;60.99;100050.94;5105134;28;20511;-45
2022/08/08 07:27:56;;;;;;;10.63;6.22;;;;;;;23.48;60.84;100080.41;5084951;28;20044;-46
2022/08/08 07:30:22;;;;;;;7.93;6.32;;;;;;;23.28;61.29;100067.88;5073804;28;20050;-47
2022/08/08 07:32:49;;;;;;;8.25;6.03;;;;;;;23.32;61.43;100090.53;5091227;28;20036;-45
2022/08/08 07:35:15;;;;;;;10.02;5.90;;;;;;;23.22;61.50;100091.28;5084336;28;20078;-47
2022/08/08 07:37:49;;;;;;;10.15;6.28;;;;;;;23.08;61.88;100096.84;5108913;28;20047;-47
2022/08/08 07:40:17;;;;;;;8.05;6.00;;;;;;;23.02;62.00;100099.16;5107700;28;20048;-45
2022/08/08 07:42:43;;;;;;;8.45;5.47;;;;;;;22.96;62.33;100105.78;5102032;28;20085;-46
2022/08/08 07:45:10;;;;;;;7.85;5.97;;;;;;;22.89;62.73;100099.28;5105530;28;20483;-44
2022/08/08 07:47:41;;;;;;;10.32;6.07;;;;;;;22.85;62.91;100087.22;5107296;28;20059;-46
2022/08/08 07:50:12;;;;;;;9.55;6.10;;;;;;;22.92;62.83;100096.41;5059241;28;20044;-46
2022/08/08 07:52:43;;;;;;;9.07;6.80;;;;;;;22.98;62.94;100105.63;5093600;28;20109;-47
2022/08/08 07:55:16;;;;;;;10.60;7.13;;;;;;;23.00;62.78;100103.72;5072283;28;20071;-44
2022/08/08 07:57:57;;;;;;;7.75;6.97;;;;;;;23.05;62.84;100110.34;5097904;28;20039;-45
2022/08/08 08:00:26;;;;;;;10.63;7.72;;;;;;;23.06;62.66;100113.84;5102170;28;20419;-45
2022/08/08 08:03:13;;;;;;;8.82;7.30;;;;;;;23.10;62.59;100110.00;5092450;28;20077;-43
2022/08/08 08:05:43;;;;;;;9.68;7.45;;;;;;;23.22;62.17;100109.88;5087113;28;20123;-44
2022/08/08 08:08:18;;;;;;;8.77;6.93;;;;;;;23.46;61.66;100101.75;5108932;28;20027;-43
2022/08/08 08:10:51;;;;;;;8.20;7.40;;;;;;;23.67;60.99;100109.78;5108280;28;20046;-48
2022/08/08 08:13:24;;;;;;;8.60;7.60;;;;;;;23.80;60.18;100110.47;5082321;28;20122;-44
2022/08/08 08:16:22;;;;;;;9.57;6.93;;;;;;;23.96;60.02;100112.72;5062531;28;20036;-44
2022/08/08 08:18:56;;;;;;;12.20;7.90;;;;;;;24.01;59.76;100116.69;5064663;28;20058;-47
2022/08/08 08:21:36;;;;;;;12.23;7.28;;;;;;;24.11;59.52;100110.59;5078797;28;20044;-44
2022/08/08 08:24:03;;;;;;;10.70;7.20;;;;;;;24.15;59.31;100088.94;5075824;28;20040;-44
2022/08/08 08:26:30;;;;;;;9.23;7.18;;;;;;;24.42;58.84;100099.94;5072036;28;20096;-44
2022/08/08 08:28:56;;;;;;;12.00;7.72;;;;;;;24.61;57.95;100096.53;5072031;28;20497;-46
2022/08/08 08:31:23;;;;;;;13.45;7.03;;;;;;;24.67;58.07;100096.00;5083625;28;20035;-44
2022/08/08 08:33:49;;;;;;;10.43;7.70;;;;;;;24.68;57.68;100096.84;5107455;28;20042;-47
2022/08/08 08:36:17;;;;;;;8.50;6.57;;;;;;;24.76;57.37;100102.34;5080800;28;20527;-45
2022/08/08 08:38:43;;;;;;;7.40;6.72;;;;;;;24.88;57.21;100094.19;5108786;28;20051;-44
2022/08/08 08:41:13;;;;;;;10.30;8.60;;;;;;;25.06;56.29;100099.72;5110599;28;20070;-46
2022/08/08 08:43:45;;;;;;;12.80;8.25;;;;;;;25.16;56.29;100105.06;5088448;28;20064;-47
2022/08/08 08:46:12;;;;;;;7.32;6.55;;;;;;;25.11;56.28;100102.81;5112776;28;20043;-47
2022/08/08 08:48:40;;;;;;;8.52;7.70;;;;;;;25.05;56.39;100107.84;5112174;28;20126;-45
2022/08/08 08:51:10;;;;;;;10.70;7.47;;;;;;;24.61;56.43;100054.00;5112253;28;20131;-47
2022/08/08 08:53:42;;;;;;;11.05;8.18;;;;;;;24.77;56.72;100104.88;5109868;28;20096;-46
2022/08/08 08:56:13;;;;;;;8.45;6.18;;;;;;;24.63;57.35;100112.38;5077637;28;21197;-45
2022/08/08 08:58:43;;;;;;;7.95;6.38;;;;;;;24.52;57.71;100109.78;5111297;28;20043;-44
2022/08/08 09:01:15;;;;;;;9.15;6.20;;;;;;;24.52;57.52;100110.63;5095289;28;20126;-47
2022/08/08 09:03:47;;;;;;;7.25;6.30;;;;;;;24.60;57.47;100110.78;5111478;28;20035;-45
2022/08/08 09:06:19;;;;;;;10.95;7.03;;;;;;;24.64;57.44;100108.75;5111270;28;20459;-44
2022/08/08 09:08:49;;;;;;;7.57;6.65;;;;;;;24.64;57.07;100108.75;5112202;28;20040;-46
2022/08/08 09:11:15;;;;;;;7.47;6.03;;;;;;;24.35;57.24;100072.19;5095664;28;20039;-48
2022/08/08 09:13:42;;;;;;;14.88;7.30;;;;;;;24.60;57.40;100108.13;5112570;28;20046;-46
2022/08/08 09:16:08;;;;;;;6.72;6.03;;;;;;;24.64;57.11;100112.25;5095545;28;20044;-47
2022/08/08 09:18:35;;;;;;;13.10;9.45;;;;;;;24.67;57.28;100124.41;5103271;28;20048;-46
2022/08/08 09:21:02;;;;;;;7.65;6.03;;;;;;;24.57;57.56;100115.53;5075078;28;20073;-45
2022/08/08 09:23:31;;;;;;;9.15;6.63;;;;;;;24.40;57.56;100087.72;5091977;28;20051;-45
2022/08/08 09:26:16;;;;;;;7.15;5.70;;;;;;;24.42;57.88;100107.91;5091893;28;20064;-45
2022/08/08 09:28:43;;;;;;;11.52;7.30;;;;;;;24.29;58.22;100107.25;5091967;28;20101;-45
2022/08/08 09:31:23;;;;;;;7.93;5.47;;;;;;;24.25;58.53;100118.28;5091694;28;20047;-45
2022/08/08 09:33:50;;;;;;;5.75;5.10;;;;;;;24.18;58.64;100117.94;5075165;28;20047;-48
2022/08/08 09:36:21;;;;;;;9.20;6.53;;;;;;;24.13;58.69;100116.63;5094663;28;20032;-44
2022/08/08 09:39:00;;;;;;;8.90;5.68;;;;;;;24.01;59.26;100115.84;5095296;28;20138;-44
2022/08/08 09:41:36;;;;;;;9.63;5.60;;;;;;;23.94;59.58;100122.63;5094853;28;20050;-43
2022/08/08 09:44:23;;;;;;;7.05;5.40;;;;;;;23.72;59.87;100112.91;5094686;28;20674;-47
2022/08/08 09:46:49;;;;;;;6.75;5.78;;;;;;;23.76;60.03;100132.94;5113231;27;20035;-43
2022/08/08 09:49:17;;;;;;;6.10;5.50;;;;;;;23.68;60.10;100129.22;5111895;28;20423;-44
2022/08/08 09:51:46;;;;;;;8.90;5.90;;;;;;;23.63;60.22;100129.59;5110477;28;20062;-44
2022/08/08 09:54:17;;;;;;;8.60;5.50;;;;;;;23.54;60.31;100136.50;5105731;28;20047;-44
2022/08/08 09:56:46;;;;;;;11.80;6.72;;;;;;;23.50;60.67;100132.38;5092414;28;20130;-45
2022/08/08 09:59:13;;;;;;;11.90;6.45;;;;;;;23.41;60.88;100138.41;5107227;28;20047;-45
2022/08/08 10:01:39;;;;;;;7.03;6.30;;;;;;;23.33;61.20;100134.69;5089820;28;20049;-44
2022/08/08 10:04:08;;;;;;;6.72;5.97;;;;;;;23.31;61.37;100131.31;5090081;28;20035;-47
2022/08/08 10:06:40;;;;;;;9.80;7.43;;;;;;;23.32;61.49;100130.34;5097854;28;20032;-49
2022/08/08 10:09:06;;;;;;;12.02;7.90;;;;;;;23.32;61.39;100138.31;5111411;28;20040;-45
2022/08/08 10:11:32;;;;;;;7.63;6.43;;;;;;;23.28;61.40;100134.22;5111510;28;20036;-44
2022/08/08 10:14:02;;;;;;;6.97;5.55;;;;;;;23.24;61.41;100128.28;5110953;28;20043;-47
2022/08/08 10:16:41;;;;;;;8.80;6.50;;;;;;;23.35;61.24;100130.09;5112356;28;20466;-46
2022/08/08 10:19:10;;;;;;;8.93;5.97;;;;;;;23.44;61.09;100122.25;5111276;28;20040;-45
2022/08/08 10:21:36;;;;;;;11.10;6.13;;;;;;;23.50;61.04;100126.25;5109341;28;20089;-47
2022/08/08 10:24:04;;;;;;;7.25;5.75;;;;;;;23.60;60.69;100119.25;5095576;28;20130;-44
2022/08/08 10:26:34;;;;;;;11.20;7.15;;;;;;;23.68;60.55;100127.41;5107009;28;20039;-49
2022/08/08 10:29:09;;;;;;;5.43;4.82;;;;;;;23.69;60.41;100123.78;5110040;28;20047;-45
2022/08/08 10:34:22;;;;;;;7.80;6.05;;;;;;;23.71;60.22;100134.31;5093649;28;20131;-45
2022/08/08 10:36:49;;;;;;;7.18;5.30;;;;;;;23.72;60.07;100139.47;5091599;28;20040;-46
2022/08/08 10:39:20;;;;;;;7.20;5.22;;;;;;;23.65;60.17;100127.66;5090594;28;20118;-49
2022/08/08 10:41:57;;;;;;;6.57;5.20;;;;;;;23.68;60.13;100135.38;5091601;28;20039;-47
2022/08/08 10:44:32;;;;;;;7.43;5.60;;;;;;;23.65;60.13;100133.00;5095434;28;20032;-46
2022/08/08 10:47:17;;;;;;;7.53;5.82;;;;;;;23.64;60.27;100126.81;5093304;28;20542;-44
2022/08/08 10:49:53;;;;;;;6.63;5.22;;;;;;;23.76;59.96;100137.41;5091293;28;20067;-45
2022/08/08 10:52:29;;;;;;;5.93;4.25;;;;;;;24.00;59.39;100136.25;5102133;28;20048;-47
2022/08/08 10:54:58;;;;;;;5.45;4.30;;;;;;;23.97;58.74;100112.56;5111992;28;20127;-45
2022/08/08 10:57:24;;;;;;;4.68;3.95;;;;;;;23.90;58.54;100081.34;5111643;28;20039;-46
2022/08/08 10:59:57;;;;;;;7.22;6.07;;;;;;;24.26;58.16;100138.56;5091204;28;20081;-47
2022/08/08 11:02:26;;;;;;;5.68;4.50;;;;;;;24.29;58.30;100133.81;5093308;28;20150;-48
2022/08/08 11:04:55;;;;;;;6.18;4.53;;;;;;;24.28;58.24;100126.84;5110461;28;20046;-46
2022/08/08 11:07:54;;;;;;;7.50;4.93;;;;;;;24.39;58.13;100121.44;5109406;28;20055;-45
2022/08/08 11:10:22;;;;;;;4.53;3.97;;;;;;;24.53;57.91;100119.44;5077112;28;20108;-45
2022/08/08 11:12:51;;;;;;;7.68;4.63;;;;;;;24.71;57.22;100116.03;5110949;28;20036;-48
2022/08/08 11:15:19;;;;;;;9.75;6.60;;;;;;;24.77;57.31;100114.66;5111099;28;20055;-44
2022/08/08 11:17:46;;;;;;;6.23;4.70;;;;;;;24.87;57.01;100113.78;5111095;28;20139;-46
2022/08/08 11:20:14;;;;;;;12.13;7.30;;;;;;;24.76;56.92;100103.19;5092940;28;20277;-46
2022/08/08 11:22:40;;;;;;;5.82;3.40;;;;;;;24.81;56.71;100081.50;5111137;28;20035;-45
2022/08/08 11:25:11;;;;;;;3.67;3.30;;;;;;;25.35;56.06;100110.44;5111185;28;20130;-48
2022/08/08 11:27:38;;;;;;;4.57;3.28;;;;;;;25.77;54.84;100111.09;5110759;28;20042;-48
2022/08/08 11:30:09;;;;;;;8.32;5.53;;;;;;;25.90;54.31;100106.38;5110085;28;20051;-46
2022/08/08 11:32:37;;;;;;;10.38;5.45;;;;;;;26.03;53.81;100106.06;5110844;28;20039;-47
2022/08/08 11:35:07;;;;;;;9.50;7.47;;;;;;;26.04;53.86;100113.94;5111003;28;20044;-50
2022/08/08 11:37:34;;;;;;;4.75;3.45;;;;;;;25.89;53.67;100106.50;5110736;28;20044;-45
2022/08/08 11:40:01;;;;;;;6.07;3.58;;;;;;;25.77;53.98;100110.25;5109348;28;20465;-45
2022/08/08 11:42:29;;;;;;;8.98;3.55;;;;;;;25.56;54.41;100107.72;5110604;28;20558;-47
2022/08/08 11:44:55;;;;;;;14.18;5.43;;;;;;;25.40;54.90;100112.69;5106943;28;20040;-45
2022/08/08 11:47:22;;;;;;;5.00;3.08;;;;;;;25.41;55.05;100103.72;5110263;28;20076;-45
2022/08/08 11:49:51;;;;;;;14.75;5.40;;;;;;;25.98;54.14;100111.81;5075812;28;20096;-47
2022/08/08 11:52:17;;;;;;;6.65;4.18;;;;;;;26.22;53.15;100110.56;5097424;28;20500;-46
2022/08/08 11:54:44;;;;;;;17.63;10.57;;;;;;;26.38;52.82;100118.84;5090497;28;20145;-44
2022/08/08 11:57:18;;;;;;;9.75;6.55;;;;;;;26.50;52.34;100113.19;5090167;28;20418;-45
2022/08/08 11:59:51;;;;;;;4.53;2.88;;;;;;;26.66;51.65;100127.75;5109626;28;20078;-46
2022/08/08 12:02:17;;;;;;;2.90;2.42;;;;;;;26.54;51.75;100116.41;5110743;28;20047;-50
2022/08/08 12:04:43;;;;;;;4.68;2.17;;;;;;;26.55;51.59;100115.44;5098506;28;20521;-44